sensor_id;sensor_type;location;lat;lon;timestamp;P1;durP1;ratioP1;P2;durP2;ratioP2
25509;SDS011;13413;52.336;21.200;2023-06-22T00:03:14;35.70;;;32.10;;
25509;SDS011;13413;52.336;21.200;2023-06-22T00:06:09;35.70;;;32.10;;
25509;SDS011;13413;52.336;21.200;2023-06-22T00:09:10;36.70;;;33.20;;
25509;SDS011;13413;52.336;21.200;2023-06-22T00:12:05;36.90;;;33.20;;
25509;SDS011;13413;52.336;21.200;2023-06-22T00:15:20;33.60;;;30.40;;
25509;SDS011;13413;52.336;21.200;2023-06-22T00:18:14;36.20;;;32.60;;
25509;SDS011;13413;52.336;21.200;2023-06-22T00:21:08;35.50;;;32.10;;
25509;SDS011;13413;52.336;21.200;2023-06-22T00:24:05;36.10;;;32.80;;
25509;SDS011;13413;52.336;21.200;2023-06-22T00:27:06;34.60;;;31.40;;
25509;SDS011;13413;52.336;21.200;2023-06-22T00:30:08;36.80;;;33.40;;
25509;SDS011;13413;52.336;21.200;2023-06-22T00:33:10;36.50;;;33.10;;
25509;SDS011;13413;52.336;21.200;2023-06-22T00:36:06;37.60;;;31.70;;
25509;SDS011;13413;52.336;21.200;2023-06-22T00:39:00;35.90;;;32.70;;
25509;SDS011;13413;52.336;21.200;2023-06-22T00:42:01;34.50;;;31.30;;
25509;SDS011;13413;52.336;21.200;2023-06-22T00:49:08;37.20;;;33.50;;
25509;SDS011;13413;52.336;21.200;2023-06-22T00:52:02;36.00;;;32.50;;
25509;SDS011;13413;52.336;21.200;2023-06-22T00:54:57;35.80;;;32.30;;
25509;SDS011;13413;52.336;21.200;2023-06-22T01:00:06;36.40;;;33.00;;
25509;SDS011;13413;52.336;21.200;2023-06-22T01:03:01;37.50;;;34.10;;
25509;SDS011;13413;52.336;21.200;2023-06-22T01:05:55;36.20;;;32.90;;
25509;SDS011;13413;52.336;21.200;2023-06-22T01:09:05;38.20;;;34.60;;
25509;SDS011;13413;52.336;21.200;2023-06-22T01:12:04;39.00;;;35.30;;
25509;SDS011;13413;52.336;21.200;2023-06-22T01:15:02;37.20;;;33.90;;
25509;SDS011;13413;52.336;21.200;2023-06-22T01:18:06;39.00;;;35.10;;
25509;SDS011;13413;52.336;21.200;2023-06-22T01:24:04;37.30;;;33.50;;
25509;SDS011;13413;52.336;21.200;2023-06-22T01:27:12;37.30;;;33.60;;
25509;SDS011;13413;52.336;21.200;2023-06-22T01:30:21;37.30;;;33.70;;
25509;SDS011;13413;52.336;21.200;2023-06-22T01:33:36;37.90;;;34.40;;
25509;SDS011;13413;52.336;21.200;2023-06-22T01:36:32;38.60;;;35.00;;
25509;SDS011;13413;52.336;21.200;2023-06-22T01:39:33;39.60;;;35.70;;
25509;SDS011;13413;52.336;21.200;2023-06-22T01:42:26;38.60;;;35.10;;
25509;SDS011;13413;52.336;21.200;2023-06-22T01:45:20;37.20;;;33.50;;
25509;SDS011;13413;52.336;21.200;2023-06-22T01:48:21;36.70;;;33.20;;
25509;SDS011;13413;52.336;21.200;2023-06-22T01:51:15;39.00;;;35.50;;
25509;SDS011;13413;52.336;21.200;2023-06-22T01:54:15;38.20;;;34.60;;
25509;SDS011;13413;52.336;21.200;2023-06-22T01:57:08;36.90;;;33.60;;
25509;SDS011;13413;52.336;21.200;2023-06-22T02:00:09;38.60;;;35.10;;
25509;SDS011;13413;52.336;21.200;2023-06-22T02:03:08;39.40;;;35.40;;
25509;SDS011;13413;52.336;21.200;2023-06-22T02:06:05;39.90;;;36.10;;
25509;SDS011;13413;52.336;21.200;2023-06-22T02:09:00;63.10;;;38.00;;
25509;SDS011;13413;52.336;21.200;2023-06-22T02:11:56;40.00;;;36.00;;
25509;SDS011;13413;52.336;21.200;2023-06-22T02:17:50;39.90;;;35.90;;
25509;SDS011;13413;52.336;21.200;2023-06-22T02:20:43;40.00;;;35.90;;
25509;SDS011;13413;52.336;21.200;2023-06-22T02:23:36;38.70;;;35.00;;
25509;SDS011;13413;52.336;21.200;2023-06-22T02:26:29;39.60;;;35.70;;
25509;SDS011;13413;52.336;21.200;2023-06-22T02:29:23;39.40;;;35.60;;
25509;SDS011;13413;52.336;21.200;2023-06-22T02:32:22;41.00;;;37.10;;
25509;SDS011;13413;52.336;21.200;2023-06-22T02:43:22;40.20;;;36.50;;
25509;SDS011;13413;52.336;21.200;2023-06-22T02:46:15;41.60;;;37.60;;
25509;SDS011;13413;52.336;21.200;2023-06-22T02:49:17;41.00;;;37.00;;
25509;SDS011;13413;52.336;21.200;2023-06-22T02:52:11;42.30;;;38.20;;
25509;SDS011;13413;52.336;21.200;2023-06-22T02:55:05;41.30;;;37.20;;
25509;SDS011;13413;52.336;21.200;2023-06-22T02:59:53;43.00;;;39.10;;
25509;SDS011;13413;52.336;21.200;2023-06-22T03:02:47;43.40;;;39.40;;
25509;SDS011;13413;52.336;21.200;2023-06-22T03:05:41;46.40;;;41.60;;
25509;SDS011;13413;52.336;21.200;2023-06-22T03:08:41;44.00;;;39.90;;
25509;SDS011;13413;52.336;21.200;2023-06-22T03:11:34;48.30;;;43.40;;
25509;SDS011;13413;52.336;21.200;2023-06-22T03:14:34;46.70;;;42.10;;
25509;SDS011;13413;52.336;21.200;2023-06-22T03:17:34;47.60;;;43.10;;
25509;SDS011;13413;52.336;21.200;2023-06-22T03:20:28;48.70;;;44.00;;
25509;SDS011;13413;52.336;21.200;2023-06-22T03:23:21;48.50;;;43.90;;
25509;SDS011;13413;52.336;21.200;2023-06-22T03:26:16;49.90;;;45.10;;
25509;SDS011;13413;52.336;21.200;2023-06-22T03:29:16;50.30;;;45.60;;
25509;SDS011;13413;52.336;21.200;2023-06-22T03:32:09;50.40;;;45.20;;
25509;SDS011;13413;52.336;21.200;2023-06-22T03:35:09;52.00;;;46.80;;
25509;SDS011;13413;52.336;21.200;2023-06-22T03:38:09;52.90;;;48.00;;
25509;SDS011;13413;52.336;21.200;2023-06-22T03:41:02;54.10;;;48.50;;
25509;SDS011;13413;52.336;21.200;2023-06-22T03:44:02;52.50;;;47.60;;
25509;SDS011;13413;52.336;21.200;2023-06-22T03:46:55;52.90;;;47.20;;
25509;SDS011;13413;52.336;21.200;2023-06-22T03:49:54;55.10;;;49.80;;
25509;SDS011;13413;52.336;21.200;2023-06-22T03:52:47;55.30;;;50.00;;
25509;SDS011;13413;52.336;21.200;2023-06-22T03:55:45;54.90;;;49.70;;
25509;SDS011;13413;52.336;21.200;2023-06-22T03:58:50;53.50;;;48.20;;
25509;SDS011;13413;52.336;21.200;2023-06-22T04:01:43;55.20;;;49.60;;
25509;SDS011;13413;52.336;21.200;2023-06-22T04:04:36;53.40;;;48.10;;
25509;SDS011;13413;52.336;21.200;2023-06-22T04:07:29;56.90;;;51.20;;
25509;SDS011;13413;52.336;21.200;2023-06-22T04:10:22;55.80;;;50.40;;
25509;SDS011;13413;52.336;21.200;2023-06-22T04:13:15;54.40;;;49.10;;
25509;SDS011;13413;52.336;21.200;2023-06-22T04:16:08;53.80;;;48.40;;
25509;SDS011;13413;52.336;21.200;2023-06-22T04:19:08;53.90;;;48.40;;
25509;SDS011;13413;52.336;21.200;2023-06-22T04:22:01;52.80;;;47.60;;
25509;SDS011;13413;52.336;21.200;2023-06-22T04:25:01;54.10;;;48.90;;
25509;SDS011;13413;52.336;21.200;2023-06-22T04:30:46;59.00;;;52.90;;
25509;SDS011;13413;52.336;21.200;2023-06-22T04:39:05;56.70;;;51.10;;
25509;SDS011;13413;52.336;21.200;2023-06-22T04:42:00;55.90;;;50.50;;
25509;SDS011;13413;52.336;21.200;2023-06-22T04:45:01;54.80;;;49.10;;
25509;SDS011;13413;52.336;21.200;2023-06-22T04:47:56;57.20;;;51.60;;
25509;SDS011;13413;52.336;21.200;2023-06-22T04:50:52;53.30;;;48.00;;
25509;SDS011;13413;52.336;21.200;2023-06-22T04:53:53;53.90;;;48.70;;
25509;SDS011;13413;52.336;21.200;2023-06-22T04:56:47;53.30;;;48.00;;
25509;SDS011;13413;52.336;21.200;2023-06-22T04:59:48;51.90;;;46.80;;
25509;SDS011;13413;52.336;21.200;2023-06-22T05:02:49;53.70;;;48.40;;
25509;SDS011;13413;52.336;21.200;2023-06-22T05:05:43;51.30;;;45.90;;
25509;SDS011;13413;52.336;21.200;2023-06-22T05:08:37;54.30;;;48.80;;
25509;SDS011;13413;52.336;21.200;2023-06-22T05:11:31;51.50;;;46.10;;
25509;SDS011;13413;52.336;21.200;2023-06-22T05:14:32;50.80;;;45.60;;
25509;SDS011;13413;52.336;21.200;2023-06-22T05:17:33;49.70;;;44.90;;
25509;SDS011;13413;52.336;21.200;2023-06-22T05:28:28;46.80;;;42.00;;
25509;SDS011;13413;52.336;21.200;2023-06-22T05:31:22;50.30;;;45.30;;
25509;SDS011;13413;52.336;21.200;2023-06-22T05:34:23;49.10;;;43.70;;
25509;SDS011;13413;52.336;21.200;2023-06-22T05:37:24;49.00;;;44.00;;
25509;SDS011;13413;52.336;21.200;2023-06-22T05:40:18;48.40;;;41.10;;
25509;SDS011;13413;52.336;21.200;2023-06-22T05:48:56;47.90;;;43.10;;
25509;SDS011;13413;52.336;21.200;2023-06-22T05:51:49;46.80;;;42.10;;
25509;SDS011;13413;52.336;21.200;2023-06-22T05:54:48;47.70;;;40.50;;
25509;SDS011;13413;52.336;21.200;2023-06-22T05:57:41;40.80;;;36.80;;
25509;SDS011;13413;52.336;21.200;2023-06-22T06:00:34;44.00;;;39.50;;
25509;SDS011;13413;52.336;21.200;2023-06-22T06:03:34;45.90;;;40.80;;
25509;SDS011;13413;52.336;21.200;2023-06-22T06:06:27;41.00;;;37.10;;
25509;SDS011;13413;52.336;21.200;2023-06-22T06:09:27;41.00;;;37.00;;
25509;SDS011;13413;52.336;21.200;2023-06-22T06:12:27;41.70;;;37.40;;
25509;SDS011;13413;52.336;21.200;2023-06-22T06:15:20;39.30;;;35.40;;
25509;SDS011;13413;52.336;21.200;2023-06-22T06:18:20;40.20;;;36.00;;
25509;SDS011;13413;52.336;21.200;2023-06-22T06:21:13;44.10;;;38.00;;
25509;SDS011;13413;52.336;21.200;2023-06-22T06:24:16;40.90;;;36.80;;
25509;SDS011;13413;52.336;21.200;2023-06-22T06:27:08;41.50;;;37.20;;
25509;SDS011;13413;52.336;21.200;2023-06-22T06:30:18;40.40;;;36.20;;
25509;SDS011;13413;52.336;21.200;2023-06-22T06:33:12;38.70;;;34.70;;
25509;SDS011;13413;52.336;21.200;2023-06-22T06:36:06;41.20;;;36.90;;
25509;SDS011;13413;52.336;21.200;2023-06-22T06:39:07;36.50;;;32.90;;
25509;SDS011;13413;52.336;21.200;2023-06-22T06:42:02;37.50;;;33.60;;
25509;SDS011;13413;52.336;21.200;2023-06-22T06:45:04;38.00;;;34.10;;
25509;SDS011;13413;52.336;21.200;2023-06-22T06:48:06;37.70;;;34.00;;
25509;SDS011;13413;52.336;21.200;2023-06-22T06:51:00;36.10;;;32.40;;
25509;SDS011;13413;52.336;21.200;2023-06-22T06:55:23;35.20;;;31.60;;
25509;SDS011;13413;52.336;21.200;2023-06-22T06:58:17;36.00;;;32.30;;
25509;SDS011;13413;52.336;21.200;2023-06-22T07:01:11;35.60;;;31.50;;
25509;SDS011;13413;52.336;21.200;2023-06-22T07:04:12;33.80;;;30.30;;
25509;SDS011;13413;52.336;21.200;2023-06-22T07:07:06;34.30;;;30.80;;
25509;SDS011;13413;52.336;21.200;2023-06-22T07:10:00;32.70;;;29.60;;
25509;SDS011;13413;52.336;21.200;2023-06-22T07:12:55;33.00;;;29.60;;
25509;SDS011;13413;52.336;21.200;2023-06-22T07:15:49;33.50;;;30.10;;
25509;SDS011;13413;52.336;21.200;2023-06-22T07:20:12;32.00;;;28.70;;
25509;SDS011;13413;52.336;21.200;2023-06-22T07:23:06;31.20;;;28.20;;
25509;SDS011;13413;52.336;21.200;2023-06-22T07:26:00;28.10;;;25.40;;
25509;SDS011;13413;52.336;21.200;2023-06-22T07:29:01;27.50;;;24.80;;
25509;SDS011;13413;52.336;21.200;2023-06-22T07:31:55;26.80;;;24.00;;
25509;SDS011;13413;52.336;21.200;2023-06-22T07:34:56;52.90;;;24.40;;
25509;SDS011;13413;52.336;21.200;2023-06-22T07:37:50;22.50;;;20.50;;
25509;SDS011;13413;52.336;21.200;2023-06-22T07:40:45;22.40;;;20.00;;
25509;SDS011;13413;52.336;21.200;2023-06-22T07:43:38;23.20;;;20.90;;
25509;SDS011;13413;52.336;21.200;2023-06-22T07:46:32;23.10;;;20.70;;
25509;SDS011;13413;52.336;21.200;2023-06-22T07:49:27;20.60;;;18.60;;
25509;SDS011;13413;52.336;21.200;2023-06-22T07:52:33;20.00;;;17.40;;
25509;SDS011;13413;52.336;21.200;2023-06-22T08:03:28;16.60;;;14.60;;
25509;SDS011;13413;52.336;21.200;2023-06-22T08:06:22;15.80;;;14.20;;
25509;SDS011;13413;52.336;21.200;2023-06-22T08:09:24;13.70;;;10.90;;
25509;SDS011;13413;52.336;21.200;2023-06-22T08:12:26;12.40;;;11.30;;
25509;SDS011;13413;52.336;21.200;2023-06-22T08:15:20;12.80;;;10.40;;
25509;SDS011;13413;52.336;21.200;2023-06-22T08:18:14;13.70;;;12.50;;
25509;SDS011;13413;52.336;21.200;2023-06-22T08:21:08;13.20;;;10.40;;
25509;SDS011;13413;52.336;21.200;2023-06-22T08:24:09;9.40;;;8.40;;
25509;SDS011;13413;52.336;21.200;2023-06-22T08:27:04;8.50;;;7.70;;
25509;SDS011;13413;52.336;21.200;2023-06-22T08:33:08;8.60;;;7.00;;
25509;SDS011;13413;52.336;21.200;2023-06-22T08:36:02;7.70;;;6.70;;
25509;SDS011;13413;52.336;21.200;2023-06-22T08:40:26;8.20;;;7.10;;
25509;SDS011;13413;52.336;21.200;2023-06-22T08:43:20;7.70;;;6.90;;
25509;SDS011;13413;52.336;21.200;2023-06-22T08:46:14;14.30;;;6.20;;
25509;SDS011;13413;52.336;21.200;2023-06-22T08:49:15;8.50;;;5.90;;
25509;SDS011;13413;52.336;21.200;2023-06-22T08:52:09;9.50;;;5.60;;
25509;SDS011;13413;52.336;21.200;2023-06-22T08:55:10;15.30;;;5.40;;
25509;SDS011;13413;52.336;21.200;2023-06-22T08:58:04;10.30;;;5.90;;
25509;SDS011;13413;52.336;21.200;2023-06-22T09:00:58;6.00;;;5.30;;
25509;SDS011;13413;52.336;21.200;2023-06-22T09:05:20;8.80;;;5.80;;
25509;SDS011;13413;52.336;21.200;2023-06-22T09:08:14;5.00;;;4.50;;
25509;SDS011;13413;52.336;21.200;2023-06-22T09:11:08;7.60;;;5.10;;
25509;SDS011;13413;52.336;21.200;2023-06-22T09:14:02;7.90;;;4.90;;
25509;SDS011;13413;52.336;21.200;2023-06-22T09:16:56;16.50;;;5.40;;
25509;SDS011;13413;52.336;21.200;2023-06-22T09:19:50;5.50;;;4.30;;
25509;SDS011;13413;52.336;21.200;2023-06-22T09:22:51;4.30;;;3.90;;
25509;SDS011;13413;52.336;21.200;2023-06-22T09:30:11;18.80;;;4.50;;
25509;SDS011;13413;52.336;21.200;2023-06-22T09:33:05;7.70;;;4.50;;
25509;SDS011;13413;52.336;21.200;2023-06-22T09:35:59;8.90;;;4.00;;
25509;SDS011;13413;52.336;21.200;2023-06-22T09:39:00;4.30;;;3.60;;
25509;SDS011;13413;52.336;21.200;2023-06-22T09:41:54;8.70;;;3.50;;
25509;SDS011;13413;52.336;21.200;2023-06-22T09:44:57;5.80;;;3.70;;
25509;SDS011;13413;52.336;21.200;2023-06-22T09:47:58;5.20;;;3.90;;
25509;SDS011;13413;52.336;21.200;2023-06-22T09:50:52;4.60;;;3.80;;
25509;SDS011;13413;52.336;21.200;2023-06-22T09:55:15;4.50;;;3.80;;
25509;SDS011;13413;52.336;21.200;2023-06-22T09:58:10;5.10;;;3.90;;
25509;SDS011;13413;52.336;21.200;2023-06-22T10:01:04;5.80;;;3.80;;
25509;SDS011;13413;52.336;21.200;2023-06-22T10:04:05;8.00;;;3.90;;
25509;SDS011;13413;52.336;21.200;2023-06-22T10:06:59;4.60;;;3.60;;
25509;SDS011;13413;52.336;21.200;2023-06-22T10:10:00;4.20;;;3.60;;
25509;SDS011;13413;52.336;21.200;2023-06-22T10:12:56;6.60;;;4.00;;
25509;SDS011;13413;52.336;21.200;2023-06-22T10:15:59;5.10;;;3.90;;
25509;SDS011;13413;52.336;21.200;2023-06-22T10:18:53;7.30;;;4.70;;
25509;SDS011;13413;52.336;21.200;2023-06-22T10:21:54;5.20;;;4.40;;
25509;SDS011;13413;52.336;21.200;2023-06-22T10:24:55;6.20;;;4.60;;
25509;SDS011;13413;52.336;21.200;2023-06-22T10:34:26;4.40;;;3.90;;
25509;SDS011;13413;52.336;21.200;2023-06-22T10:37:27;4.80;;;4.40;;
25509;SDS011;13413;52.336;21.200;2023-06-22T10:40:21;5.90;;;5.20;;
25509;SDS011;13413;52.336;21.200;2023-06-22T10:43:22;8.20;;;4.30;;
25509;SDS011;13413;52.336;21.200;2023-06-22T10:46:16;9.90;;;4.90;;
25509;SDS011;13413;52.336;21.200;2023-06-22T10:49:10;5.10;;;4.70;;
25509;SDS011;13413;52.336;21.200;2023-06-22T10:52:04;7.20;;;4.90;;
25509;SDS011;13413;52.336;21.200;2023-06-22T10:55:00;6.40;;;4.80;;
25509;SDS011;13413;52.336;21.200;2023-06-22T10:57:52;6.10;;;4.60;;
25509;SDS011;13413;52.336;21.200;2023-06-22T11:00:47;7.90;;;4.50;;
25509;SDS011;13413;52.336;21.200;2023-06-22T11:03:41;9.40;;;4.40;;
25509;SDS011;13413;52.336;21.200;2023-06-22T11:06:35;5.10;;;4.60;;
25509;SDS011;13413;52.336;21.200;2023-06-22T11:09:29;5.20;;;4.50;;
25509;SDS011;13413;52.336;21.200;2023-06-22T11:12:23;4.90;;;4.50;;
25509;SDS011;13413;52.336;21.200;2023-06-22T11:15:17;12.50;;;5.30;;
25509;SDS011;13413;52.336;21.200;2023-06-22T11:18:18;6.30;;;4.40;;
25509;SDS011;13413;52.336;21.200;2023-06-22T11:21:12;8.00;;;4.50;;
25509;SDS011;13413;52.336;21.200;2023-06-22T11:25:38;7.70;;;4.20;;
25509;SDS011;13413;52.336;21.200;2023-06-22T11:28:33;6.90;;;4.30;;
25509;SDS011;13413;52.336;21.200;2023-06-22T11:31:27;5.30;;;4.80;;
25509;SDS011;13413;52.336;21.200;2023-06-22T11:34:22;6.20;;;4.10;;
25509;SDS011;13413;52.336;21.200;2023-06-22T11:37:22;8.00;;;4.40;;
25509;SDS011;13413;52.336;21.200;2023-06-22T11:40:17;5.30;;;4.30;;
25509;SDS011;13413;52.336;21.200;2023-06-22T11:46:20;4.70;;;4.30;;
25509;SDS011;13413;52.336;21.200;2023-06-22T11:49:14;8.00;;;4.70;;
25509;SDS011;13413;52.336;21.200;2023-06-22T11:52:08;8.50;;;4.60;;
25509;SDS011;13413;52.336;21.200;2023-06-22T11:55:09;7.50;;;5.00;;
25509;SDS011;13413;52.336;21.200;2023-06-22T11:58:06;5.60;;;5.00;;
25509;SDS011;13413;52.336;21.200;2023-06-22T12:01:00;8.80;;;4.70;;
25509;SDS011;13413;52.336;21.200;2023-06-22T12:04:01;8.40;;;4.90;;
25509;SDS011;13413;52.336;21.200;2023-06-22T12:06:56;7.30;;;5.00;;
25509;SDS011;13413;52.336;21.200;2023-06-22T12:09:56;6.30;;;5.40;;
25509;SDS011;13413;52.336;21.200;2023-06-22T12:12:51;5.80;;;5.00;;
25509;SDS011;13413;52.336;21.200;2023-06-22T12:15:45;7.00;;;4.80;;
25509;SDS011;13413;52.336;21.200;2023-06-22T12:18:38;5.20;;;4.70;;
25509;SDS011;13413;52.336;21.200;2023-06-22T12:24:32;6.00;;;4.70;;
25509;SDS011;13413;52.336;21.200;2023-06-22T12:27:32;7.40;;;6.40;;
25509;SDS011;13413;52.336;21.200;2023-06-22T12:30:27;9.00;;;5.60;;
25509;SDS011;13413;52.336;21.200;2023-06-22T12:33:21;6.40;;;5.10;;
25509;SDS011;13413;52.336;21.200;2023-06-22T12:36:14;10.30;;;5.50;;
25509;SDS011;13413;52.336;21.200;2023-06-22T12:39:15;10.40;;;5.40;;
25509;SDS011;13413;52.336;21.200;2023-06-22T12:42:09;8.30;;;4.80;;
25509;SDS011;13413;52.336;21.200;2023-06-22T12:49:16;5.80;;;5.20;;
25509;SDS011;13413;52.336;21.200;2023-06-22T12:52:11;8.90;;;5.50;;
25509;SDS011;13413;52.336;21.200;2023-06-22T12:55:11;5.10;;;4.70;;
25509;SDS011;13413;52.336;21.200;2023-06-22T12:58:06;5.70;;;5.00;;
25509;SDS011;13413;52.336;21.200;2023-06-22T13:01:00;7.30;;;5.60;;
25509;SDS011;13413;52.336;21.200;2023-06-22T13:04:01;10.30;;;5.40;;
25509;SDS011;13413;52.336;21.200;2023-06-22T13:06:55;7.50;;;6.50;;
25509;SDS011;13413;52.336;21.200;2023-06-22T13:09:55;9.90;;;6.60;;
25509;SDS011;13413;52.336;21.200;2023-06-22T13:12:49;10.40;;;6.00;;
25509;SDS011;13413;52.336;21.200;2023-06-22T13:15:44;8.30;;;6.50;;
25509;SDS011;13413;52.336;21.200;2023-06-22T13:18:37;9.40;;;6.40;;
25509;SDS011;13413;52.336;21.200;2023-06-22T13:21:32;11.70;;;8.70;;
25509;SDS011;13413;52.336;21.200;2023-06-22T13:24:33;9.10;;;7.80;;
25509;SDS011;13413;52.336;21.200;2023-06-22T13:27:34;8.40;;;7.40;;
25509;SDS011;13413;52.336;21.200;2023-06-22T13:38:27;7.90;;;6.40;;
25509;SDS011;13413;52.336;21.200;2023-06-22T13:41:21;13.00;;;6.20;;
25509;SDS011;13413;52.336;21.200;2023-06-22T13:44:22;7.90;;;7.10;;
25509;SDS011;13413;52.336;21.200;2023-06-22T13:47:23;9.20;;;5.90;;
25509;SDS011;13413;52.336;21.200;2023-06-22T13:50:24;6.60;;;5.90;;
25509;SDS011;13413;52.336;21.200;2023-06-22T13:53:19;9.10;;;6.20;;
25509;SDS011;13413;52.336;21.200;2023-06-22T13:56:13;8.30;;;7.60;;
25509;SDS011;13413;52.336;21.200;2023-06-22T13:59:07;7.90;;;6.20;;
25509;SDS011;13413;52.336;21.200;2023-06-22T14:02:02;7.40;;;6.40;;
25509;SDS011;13413;52.336;21.200;2023-06-22T14:05:04;9.50;;;6.70;;
25509;SDS011;13413;52.336;21.200;2023-06-22T14:07:58;6.90;;;5.80;;
25509;SDS011;13413;52.336;21.200;2023-06-22T14:10:52;7.90;;;6.30;;
25509;SDS011;13413;52.336;21.200;2023-06-22T14:19:10;6.60;;;5.30;;
25509;SDS011;13413;52.336;21.200;2023-06-22T14:22:05;6.80;;;5.30;;
25509;SDS011;13413;52.336;21.200;2023-06-22T14:25:06;8.20;;;5.50;;
25509;SDS011;13413;52.336;21.200;2023-06-22T14:28:01;6.50;;;5.90;;
25509;SDS011;13413;52.336;21.200;2023-06-22T14:30:55;6.20;;;5.10;;
25509;SDS011;13413;52.336;21.200;2023-06-22T14:33:50;7.00;;;5.70;;
25509;SDS011;13413;52.336;21.200;2023-06-22T14:36:44;6.20;;;5.40;;
25509;SDS011;13413;52.336;21.200;2023-06-22T14:39:38;8.50;;;5.00;;
25509;SDS011;13413;52.336;21.200;2023-06-22T14:42:32;8.60;;;5.70;;
25509;SDS011;13413;52.336;21.200;2023-06-22T14:45:26;7.50;;;5.50;;
25509;SDS011;13413;52.336;21.200;2023-06-22T14:48:20;5.90;;;5.40;;
25509;SDS011;13413;52.336;21.200;2023-06-22T14:51:21;6.80;;;6.00;;
25509;SDS011;13413;52.336;21.200;2023-06-22T14:54:22;6.20;;;5.50;;
25509;SDS011;13413;52.336;21.200;2023-06-22T14:57:16;8.10;;;5.60;;
25509;SDS011;13413;52.336;21.200;2023-06-22T15:00:27;7.80;;;6.40;;
25509;SDS011;13413;52.336;21.200;2023-06-22T15:03:21;6.70;;;6.00;;
25509;SDS011;13413;52.336;21.200;2023-06-22T15:06:15;6.10;;;5.50;;
25509;SDS011;13413;52.336;21.200;2023-06-22T15:09:17;9.00;;;5.80;;
25509;SDS011;13413;52.336;21.200;2023-06-22T15:12:11;7.20;;;5.90;;
25509;SDS011;13413;52.336;21.200;2023-06-22T15:15:12;7.00;;;5.70;;
25509;SDS011;13413;52.336;21.200;2023-06-22T15:18:06;8.60;;;5.90;;
25509;SDS011;13413;52.336;21.200;2023-06-22T15:21:00;9.30;;;5.40;;
25509;SDS011;13413;52.336;21.200;2023-06-22T15:24:02;7.30;;;5.20;;
25509;SDS011;13413;52.336;21.200;2023-06-22T15:26:55;7.70;;;5.70;;
25509;SDS011;13413;52.336;21.200;2023-06-22T15:29:57;6.20;;;5.60;;
25509;SDS011;13413;52.336;21.200;2023-06-22T15:32:58;6.30;;;5.60;;
25509;SDS011;13413;52.336;21.200;2023-06-22T15:36:01;5.70;;;5.20;;
25509;SDS011;13413;52.336;21.200;2023-06-22T15:38:56;5.90;;;5.30;;
25509;SDS011;13413;52.336;21.200;2023-06-22T15:41:50;29.00;;;7.70;;
25509;SDS011;13413;52.336;21.200;2023-06-22T15:44:52;5.80;;;5.30;;
25509;SDS011;13413;52.336;21.200;2023-06-22T15:54:21;8.10;;;5.40;;
25509;SDS011;13413;52.336;21.200;2023-06-22T15:57:22;5.80;;;5.20;;
25509;SDS011;13413;52.336;21.200;2023-06-22T16:00:17;7.60;;;5.70;;
25509;SDS011;13413;52.336;21.200;2023-06-22T16:03:18;6.90;;;5.80;;
25509;SDS011;13413;52.336;21.200;2023-06-22T16:06:12;6.50;;;5.90;;
25509;SDS011;13413;52.336;21.200;2023-06-22T16:09:13;7.80;;;6.10;;
25509;SDS011;13413;52.336;21.200;2023-06-22T16:19:49;6.40;;;5.70;;
25509;SDS011;13413;52.336;21.200;2023-06-22T16:22:43;7.20;;;5.80;;
25509;SDS011;13413;52.336;21.200;2023-06-22T16:25:38;10.20;;;6.10;;
25509;SDS011;13413;52.336;21.200;2023-06-22T16:28:32;6.70;;;6.00;;
25509;SDS011;13413;52.336;21.200;2023-06-22T16:31:26;6.10;;;5.50;;
25509;SDS011;13413;52.336;21.200;2023-06-22T16:34:20;6.60;;;5.90;;
25509;SDS011;13413;52.336;21.200;2023-06-22T16:37:22;7.60;;;6.30;;
25509;SDS011;13413;52.336;21.200;2023-06-22T16:44:25;8.40;;;6.00;;
25509;SDS011;13413;52.336;21.200;2023-06-22T16:47:26;7.20;;;6.40;;
25509;SDS011;13413;52.336;21.200;2023-06-22T16:50:20;7.50;;;6.80;;
25509;SDS011;13413;52.336;21.200;2023-06-22T16:53:21;8.60;;;6.90;;
25509;SDS011;13413;52.336;21.200;2023-06-22T16:56:15;11.80;;;7.80;;
25509;SDS011;13413;52.336;21.200;2023-06-22T16:59:17;8.70;;;6.80;;
25509;SDS011;13413;52.336;21.200;2023-06-22T17:02:17;9.10;;;6.70;;
25509;SDS011;13413;52.336;21.200;2023-06-22T17:09:23;10.50;;;7.00;;
25509;SDS011;13413;52.336;21.200;2023-06-22T17:12:18;19.40;;;8.20;;
25509;SDS011;13413;52.336;21.200;2023-06-22T17:15:13;10.00;;;6.50;;
25509;SDS011;13413;52.336;21.200;2023-06-22T17:18:14;8.50;;;7.10;;
25509;SDS011;13413;52.336;21.200;2023-06-22T17:21:12;7.30;;;6.40;;
25509;SDS011;13413;52.336;21.200;2023-06-22T17:24:12;11.00;;;7.80;;
25509;SDS011;13413;52.336;21.200;2023-06-22T17:27:07;10.50;;;7.80;;
25509;SDS011;13413;52.336;21.200;2023-06-22T17:30:04;8.10;;;7.00;;
25509;SDS011;13413;52.336;21.200;2023-06-22T17:33:00;10.60;;;7.50;;
25509;SDS011;13413;52.336;21.200;2023-06-22T17:35:55;8.40;;;7.20;;
25509;SDS011;13413;52.336;21.200;2023-06-22T17:47:10;10.70;;;7.50;;
25509;SDS011;13413;52.336;21.200;2023-06-22T17:50:12;7.80;;;7.00;;
25509;SDS011;13413;52.336;21.200;2023-06-22T17:53:13;8.30;;;7.50;;
25509;SDS011;13413;52.336;21.200;2023-06-22T17:56:08;8.60;;;7.70;;
25509;SDS011;13413;52.336;21.200;2023-06-22T17:59:05;11.10;;;9.10;;
25509;SDS011;13413;52.336;21.200;2023-06-22T18:02:07;14.30;;;10.40;;
25509;SDS011;13413;52.336;21.200;2023-06-22T18:09:16;10.10;;;8.80;;
25509;SDS011;13413;52.336;21.200;2023-06-22T18:12:11;13.40;;;10.40;;
25509;SDS011;13413;52.336;21.200;2023-06-22T18:15:12;13.80;;;9.80;;
25509;SDS011;13413;52.336;21.200;2023-06-22T18:18:14;10.80;;;8.20;;
25509;SDS011;13413;52.336;21.200;2023-06-22T18:21:09;8.60;;;7.70;;
25509;SDS011;13413;52.336;21.200;2023-06-22T18:24:11;9.10;;;8.00;;
25509;SDS011;13413;52.336;21.200;2023-06-22T18:27:07;10.30;;;7.00;;
25509;SDS011;13413;52.336;21.200;2023-06-22T18:33:16;8.90;;;7.40;;
25509;SDS011;13413;52.336;21.200;2023-06-22T18:36:10;8.30;;;7.40;;
25509;SDS011;13413;52.336;21.200;2023-06-22T18:39:13;9.30;;;6.30;;
25509;SDS011;13413;52.336;21.200;2023-06-22T18:42:09;9.80;;;8.00;;
25509;SDS011;13413;52.336;21.200;2023-06-22T18:45:23;17.30;;;15.60;;
25509;SDS011;13413;52.336;21.200;2023-06-22T18:48:23;12.50;;;10.60;;
25509;SDS011;13413;52.336;21.200;2023-06-22T18:51:17;8.80;;;7.90;;
25509;SDS011;13413;52.336;21.200;2023-06-22T18:54:35;11.40;;;7.10;;
25509;SDS011;13413;52.336;21.200;2023-06-22T18:57:31;9.50;;;7.20;;
25509;SDS011;13413;52.336;21.200;2023-06-22T19:00:31;7.50;;;6.70;;
25509;SDS011;13413;52.336;21.200;2023-06-22T19:09:14;10.90;;;7.90;;
25509;SDS011;13413;52.336;21.200;2023-06-22T19:12:17;14.10;;;7.20;;
25509;SDS011;13413;52.336;21.200;2023-06-22T19:15:20;16.40;;;8.40;;
25509;SDS011;13413;52.336;21.200;2023-06-22T19:18:16;13.80;;;8.00;;
25509;SDS011;13413;52.336;21.200;2023-06-22T19:21:11;27.70;;;9.30;;
25509;SDS011;13413;52.336;21.200;2023-06-22T19:24:28;12.90;;;8.90;;
25509;SDS011;13413;52.336;21.200;2023-06-22T19:27:30;15.40;;;8.40;;
25509;SDS011;13413;52.336;21.200;2023-06-22T19:30:43;15.50;;;8.30;;
25509;SDS011;13413;52.336;21.200;2023-06-22T19:33:42;15.30;;;8.90;;
25509;SDS011;13413;52.336;21.200;2023-06-22T19:36:35;14.70;;;8.90;;
25509;SDS011;13413;52.336;21.200;2023-06-22T19:39:36;10.90;;;7.90;;